Time;durP1;ratioP1;P1;durP2;ratioP2;P2;SDS_P1;SDS_P2;PMS_P1;PMS_P2;Temp;Humidity;BMP_temperature;BMP_pressure;BME280_temperature;BME280_humidity;BME280_pressure;Samples;Min_cycle;Max_cycle;Signal;HPM_P1;HPM_P2
2023/02/03 00:00:27;;;;;;;9.02;5.32;;;;;;;-0.43;100.00;93292.91;5071235;28;20182;-69
2023/02/03 00:02:54;;;;;;;14.82;7.90;;;;;;;-0.51;100.00;93292.00;5070939;28;20131;-69
2023/02/03 00:05:21;;;;;;;7.07;4.65;;;;;;;-0.42;100.00;93281.84;5071468;28;20456;-69
2023/02/03 00:07:50;;;;;;;6.45;4.50;;;;;;;-0.43;100.00;93279.47;5070406;28;20052;-69
2023/02/03 00:10:20;;;;;;;6.30;4.55;;;;;;;-0.59;100.00;93283.41;5053156;28;20448;-71
2023/02/03 00:12:47;;;;;;;16.15;8.32;;;;;;;-0.65;100.00;93296.56;5059514;28;20045;-71
2023/02/03 00:15:13;;;;;;;18.25;8.10;;;;;;;-0.58;100.00;93300.13;5070156;28;20044;-71
2023/02/03 00:17:40;;;;;;;8.88;5.90;;;;;;;-0.58;100.00;93296.81;5063489;28;20045;-71
2023/02/03 00:20:08;;;;;;;15.73;7.53;;;;;;;-0.65;100.00;93298.31;5059039;28;20094;-71
2023/02/03 00:22:35;;;;;;;22.05;11.35;;;;;;;-0.67;100.00;93295.91;5064794;28;20505;-72
2023/02/03 00:25:03;;;;;;;13.80;6.90;;;;;;;-0.60;100.00;93298.69;5050051;28;20041;-70
2023/02/03 00:27:30;;;;;;;8.60;5.53;;;;;;;-0.65;100.00;93305.88;5048591;28;20044;-71
2023/02/03 00:29:56;;;;;;;9.05;5.82;;;;;;;-0.61;100.00;93317.28;5063792;28;20385;-70
2023/02/03 00:32:23;;;;;;;11.48;7.35;;;;;;;-0.47;100.00;93328.66;5069967;28;20098;-70
2023/02/03 00:34:50;;;;;;;6.95;5.40;;;;;;;-0.63;100.00;93334.28;5069584;28;20165;-71
2023/02/03 00:37:17;;;;;;;10.43;6.78;;;;;;;-0.68;100.00;93317.03;5070014;28;20044;-69
2023/02/03 00:39:43;;;;;;;6.30;5.07;;;;;;;-0.45;100.00;93324.25;5069638;28;20497;-70
2023/02/03 00:42:11;;;;;;;8.05;5.78;;;;;;;-0.65;100.00;93324.31;5069283;28;20093;-70
2023/02/03 00:44:38;;;;;;;8.52;5.10;;;;;;;-0.69;100.00;93323.78;5069644;28;20040;-71
2023/02/03 00:47:05;;;;;;;7.90;4.97;;;;;;;-0.60;100.00;93324.69;5069374;28;20040;-71
2023/02/03 00:49:31;;;;;;;7.20;5.00;;;;;;;-0.77;100.00;93335.50;5069693;28;20443;-71
2023/02/03 00:51:58;;;;;;;5.85;3.88;;;;;;;-0.69;100.00;93335.63;5069699;28;20044;-71
2023/02/03 00:54:25;;;;;;;8.88;4.95;;;;;;;-0.64;100.00;93347.81;5069376;28;20062;-71
2023/02/03 00:56:52;;;;;;;5.00;3.55;;;;;;;-0.47;100.00;93351.38;5069433;28;20119;-71
2023/02/03 00:59:20;;;;;;;5.97;4.40;;;;;;;-0.58;100.00;93357.34;5069534;28;20040;-70
2023/02/03 01:01:48;;;;;;;7.50;4.38;;;;;;;-0.50;100.00;93344.06;5069134;28;20089;-70
2023/02/03 01:04:15;;;;;;;6.65;3.80;;;;;;;-0.56;100.00;93358.81;5069743;28;20071;-71
2023/02/03 01:06:42;;;;;;;6.30;3.22;;;;;;;-0.60;100.00;93366.81;5069269;28;20036;-71
2023/02/03 01:09:08;;;;;;;4.95;3.42;;;;;;;-0.57;100.00;93358.94;5069117;28;20048;-71
2023/02/03 01:11:35;;;;;;;4.10;2.45;;;;;;;-0.61;100.00;93365.22;5069167;28;20546;-71
2023/02/03 01:14:02;;;;;;;3.28;1.85;;;;;;;-0.68;100.00;93364.97;5069355;28;20048;-71
2023/02/03 01:16:35;;;;;;;2.80;1.67;;;;;;;-0.77;100.00;93369.09;5069176;28;20044;-71
2023/02/03 01:19:01;;;;;;;4.47;2.25;;;;;;;-0.93;100.00;93349.47;5069685;28;20052;-71
2023/02/03 01:21:28;;;;;;;2.40;1.63;;;;;;;-0.89;100.00;93350.03;5069250;28;20045;-71
2023/02/03 01:23:55;;;;;;;3.03;1.60;;;;;;;-1.01;100.00;93355.22;5069498;28;20067;-71
2023/02/03 01:26:23;;;;;;;2.60;1.73;;;;;;;-0.91;100.00;93351.88;5068865;28;20090;-71
2023/02/03 01:28:54;;;;;;;2.70;1.75;;;;;;;-1.08;100.00;93349.91;5069039;28;20447;-73
2023/02/03 01:31:24;;;;;;;3.80;1.92;;;;;;;-1.04;100.00;93355.47;5068673;28;20082;-70
2023/02/03 01:33:54;;;;;;;2.88;1.88;;;;;;;-0.92;100.00;93360.38;5068600;28;20574;-70
2023/02/03 01:36:22;;;;;;;2.90;1.70;;;;;;;-0.98;100.00;93371.78;5068976;28;20134;-71
2023/02/03 01:38:49;;;;;;;2.90;2.00;;;;;;;-0.98;100.00;93379.34;5068605;28;20055;-71
2023/02/03 01:41:18;;;;;;;4.53;1.80;;;;;;;-1.00;100.00;93382.03;5068948;28;20090;-71
2023/02/03 01:43:51;;;;;;;3.45;2.50;;;;;;;-0.97;100.00;93375.91;5068587;28;20094;-71
2023/02/03 01:46:34;;;;;;;2.83;1.77;;;;;;;-0.90;100.00;93374.44;5068903;28;20040;-71
2023/02/03 01:49:08;;;;;;;3.05;1.90;;;;;;;-0.91;100.00;93372.84;5068656;28;20461;-71
2023/02/03 01:51:37;;;;;;;3.78;2.28;;;;;;;-0.91;100.00;93365.28;5068619;28;20492;-71
2023/02/03 01:54:05;;;;;;;4.07;2.17;;;;;;;-0.78;100.00;93364.19;5068495;28;20098;-71
2023/02/03 01:56:38;;;;;;;2.63;1.92;;;;;;;-0.73;100.00;93362.06;5056355;28;20044;-71
2023/02/03 01:59:05;;;;;;;3.92;2.40;;;;;;;-0.52;100.00;93361.06;5059236;28;20045;-71
2023/02/03 02:01:36;;;;;;;4.05;2.35;;;;;;;-0.31;100.00;93365.91;5048554;28;20048;-69
2023/02/03 02:04:06;;;;;;;3.33;1.60;;;;;;;-0.24;100.00;93374.50;5055500;28;20063;-71
2023/02/03 02:06:32;;;;;;;4.53;1.98;;;;;;;-0.45;100.00;93367.97;5056589;28;20107;-71
2023/02/03 02:09:00;;;;;;;7.13;3.72;;;;;;;-0.70;100.00;93366.81;5048471;28;20540;-71
2023/02/03 02:11:28;;;;;;;5.72;2.90;;;;;;;-0.72;100.00;93373.72;5052347;28;20080;-69
2023/02/03 02:13:58;;;;;;;5.97;3.00;;;;;;;-0.79;100.00;93385.31;5050308;28;20044;-69
2023/02/03 02:16:33;;;;;;;4.30;2.55;;;;;;;-0.90;100.00;93391.28;5068648;28;20549;-69
2023/02/03 02:19:21;;;;;;;4.35;2.28;;;;;;;-0.98;100.00;93382.66;5057879;28;20125;-69
2023/02/03 02:21:59;;;;;;;5.70;2.70;;;;;;;-0.94;100.00;93388.22;5055191;28;20053;-69
2023/02/03 02:24:53;;;;;;;3.42;2.42;;;;;;;-0.97;100.00;93396.09;5068952;28;20129;-69
2023/02/03 02:27:42;;;;;;;5.28;3.85;;;;;;;-0.93;100.00;93399.91;5068703;28;20041;-69
2023/02/03 02:30:28;;;;;;;4.55;2.78;;;;;;;-0.94;100.00;93410.94;5068663;28;20062;-69
2023/02/03 02:33:10;;;;;;;3.08;2.33;;;;;;;-0.94;100.00;93398.31;5068492;28;20045;-68
2023/02/03 02:35:56;;;;;;;3.22;2.60;;;;;;;-0.66;100.00;93393.38;5068284;28;20086;-69
2023/02/03 02:38:34;;;;;;;4.68;2.95;;;;;;;-0.64;100.00;93396.56;5068650;28;20041;-69
2023/02/03 02:41:06;;;;;;;3.28;2.30;;;;;;;-0.68;100.00;93413.69;5068823;28;20048;-69
2023/02/03 02:43:41;;;;;;;5.50;2.75;;;;;;;-0.88;100.00;93423.00;5068370;28;20086;-69
2023/02/03 02:46:13;;;;;;;4.28;2.88;;;;;;;-0.85;100.00;93425.25;5068478;28;20052;-69
2023/02/03 02:48:47;;;;;;;4.78;2.80;;;;;;;-0.65;100.00;93422.69;5043534;28;20507;-69
2023/02/03 02:51:16;;;;;;;6.78;3.17;;;;;;;-0.45;100.00;93430.25;5071138;28;20557;-70
2023/02/03 02:53:48;;;;;;;5.57;2.95;;;;;;;-0.38;100.00;93427.97;5072075;28;20106;-69
2023/02/03 02:56:17;;;;;;;6.32;3.85;;;;;;;-0.45;100.00;93435.28;5071088;28;20572;-69
2023/02/03 02:58:47;;;;;;;6.18;3.38;;;;;;;-0.54;100.00;93439.44;5060143;28;20186;-70
2023/02/03 03:01:15;;;;;;;4.45;3.38;;;;;;;-0.51;100.00;93439.13;5072161;28;20062;-69
2023/02/03 03:03:44;;;;;;;5.47;3.38;;;;;;;-0.58;100.00;93438.91;5072097;28;20056;-70
2023/02/03 03:06:15;;;;;;;4.93;3.30;;;;;;;-0.63;100.00;93441.03;5071551;28;20500;-70
2023/02/03 03:08:48;;;;;;;6.97;5.55;;;;;;;-0.39;100.00;93438.97;5071375;28;20440;-69
2023/02/03 03:11:15;;;;;;;7.95;4.20;;;;;;;-0.58;100.00;93443.16;5071073;28;20045;-69
2023/02/03 03:13:48;;;;;;;5.00;4.03;;;;;;;-0.54;100.00;93440.22;5071984;28;20479;-69
2023/02/03 03:16:16;;;;;;;7.25;4.90;;;;;;;-0.58;100.00;93446.47;5072070;28;20048;-69
2023/02/03 03:18:49;;;;;;;9.85;5.07;;;;;;;-0.68;100.00;93456.56;5071697;28;20041;-69
2023/02/03 03:21:22;;;;;;;9.68;5.18;;;;;;;-0.69;100.00;93464.28;5071800;28;20048;-69
2023/02/03 03:23:52;;;;;;;6.25;3.47;;;;;;;-0.87;100.00;93461.63;5071276;28;20459;-69
2023/02/03 03:26:26;;;;;;;5.72;3.50;;;;;;;-0.97;100.00;93464.16;5071546;28;20052;-70
2023/02/03 03:29:00;;;;;;;5.28;3.20;;;;;;;-1.02;100.00;93458.72;5071302;28;20048;-69
2023/02/03 03:31:27;;;;;;;6.15;3.85;;;;;;;-0.95;100.00;93465.63;5072155;28;20045;-69
2023/02/03 03:33:55;;;;;;;8.85;4.47;;;;;;;-0.95;100.00;93462.31;5071454;28;20044;-69
2023/02/03 03:36:27;;;;;;;7.53;4.38;;;;;;;-0.84;100.00;93457.13;5071241;28;20097;-69
2023/02/03 03:39:00;;;;;;;10.88;6.35;;;;;;;-0.81;100.00;93453.53;5059415;28;20056;-69
2023/02/03 03:41:38;;;;;;;9.23;5.93;;;;;;;-0.77;100.00;93459.09;5071331;28;20090;-69
2023/02/03 03:44:09;;;;;;;6.53;4.75;;;;;;;-0.81;100.00;93464.44;5071300;28;20098;-69
2023/02/03 03:46:43;;;;;;;7.32;5.47;;;;;;;-0.68;100.00;93464.13;5070796;28;20091;-70
2023/02/03 03:49:12;;;;;;;7.18;5.75;;;;;;;-0.51;100.00;93461.84;5071286;28;20389;-69
2023/02/03 03:51:44;;;;;;;8.15;5.15;;;;;;;-0.67;100.00;93467.47;5070945;28;20044;-69
2023/02/03 03:54:15;;;;;;;12.05;5.80;;;;;;;-0.70;100.00;93463.47;5070965;28;20055;-69
2023/02/03 03:56:46;;;;;;;10.27;5.20;;;;;;;-0.81;100.00;93461.09;5045728;28;20089;-70
2023/02/03 03:59:17;;;;;;;13.30;6.45;;;;;;;-0.74;100.00;93457.09;5070626;28;20060;-69
2023/02/03 04:01:44;;;;;;;7.40;4.45;;;;;;;-0.70;100.00;93455.09;5071030;28;20052;-69
2023/02/03 04:04:32;;;;;;;15.10;4.55;;;;;;;-0.87;100.00;93462.44;5070953;28;20093;-69
2023/02/03 04:06:59;;;;;;;12.98;7.00;;;;;;;-0.90;100.00;93452.63;5070717;28;20500;-69
2023/02/03 04:09:25;;;;;;;5.47;4.22;;;;;;;-1.04;100.00;93448.75;5070848;28;20041;-69
2023/02/03 04:12:01;;;;;;;6.38;4.47;;;;;;;-1.13;100.00;93449.53;5058037;28;20459;-69
2023/02/03 04:14:29;;;;;;;5.82;3.80;;;;;;;-1.16;100.00;93452.34;5058485;28;20041;-69
2023/02/03 04:16:56;;;;;;;6.18;4.55;;;;;;;-1.22;100.00;93456.19;5070800;28;20044;-69
2023/02/03 04:19:23;;;;;;;5.43;4.03;;;;;;;-1.25;100.00;93456.47;5070876;28;20036;-70
2023/02/03 04:21:52;;;;;;;5.35;3.92;;;;;;;-1.24;100.00;93463.88;5069899;28;20589;-70
2023/02/03 04:24:18;;;;;;;9.82;5.03;;;;;;;-1.17;100.00;93469.19;5070214;28;20094;-70
2023/02/03 04:26:45;;;;;;;6.60;4.03;;;;;;;-1.14;100.00;93473.97;5070252;28;20512;-69
2023/02/03 04:29:12;;;;;;;7.40;5.05;;;;;;;-0.98;100.00;93473.44;5070078;28;20098;-69
2023/02/03 04:31:39;;;;;;;13.15;6.90;;;;;;;-0.79;100.00;93483.66;5069262;28;20558;-69
2023/02/03 04:34:06;;;;;;;23.15;12.30;;;;;;;-0.61;100.00;93484.59;5058339;28;20048;-69
2023/02/03 04:36:33;;;;;;;20.70;9.90;;;;;;;-0.58;100.00;93498.66;5069749;28;20090;-69
2023/02/03 04:39:01;;;;;;;17.33;6.85;;;;;;;-0.68;100.00;93496.16;5070296;28;20094;-69
2023/02/03 04:41:27;;;;;;;17.25;6.68;;;;;;;-0.64;100.00;93494.97;5070384;28;20302;-68
2023/02/03 04:43:54;;;;;;;25.52;10.75;;;;;;;-0.62;100.00;93499.84;5069898;28;20056;-69
2023/02/03 04:46:21;;;;;;;22.25;10.55;;;;;;;-0.42;100.00;93491.34;5070223;28;20185;-69
2023/02/03 04:48:48;;;;;;;35.38;18.52;;;;;;;-0.28;100.00;93504.44;5070058;28;20106;-70
2023/02/03 04:51:14;;;;;;;21.15;9.63;;;;;;;-0.24;100.00;93495.69;5069396;28;20048;-69
2023/02/03 04:53:41;;;;;;;7.93;4.05;;;;;;;-0.59;100.00;93513.03;5069570;28;20040;-69
2023/02/03 04:56:09;;;;;;;7.75;3.58;;;;;;;-0.57;100.00;93517.91;5069749;28;20129;-68
2023/02/03 04:58:36;;;;;;;11.52;4.60;;;;;;;-0.55;100.00;93514.31;5069718;28;20105;-68
2023/02/03 05:01:07;;;;;;;14.30;6.30;;;;;;;-0.52;100.00;93505.69;5069761;28;20094;-69
2023/02/03 05:03:35;;;;;;;13.45;6.93;;;;;;;-0.58;100.00;93517.13;5069740;28;20527;-69
2023/02/03 05:06:03;;;;;;;8.43;6.20;;;;;;;-0.74;100.00;93526.97;5069600;28;20040;-69
2023/02/03 05:08:30;;;;;;;7.82;5.10;;;;;;;-0.77;100.00;93517.94;5069424;28;20564;-69
2023/02/03 05:10:57;;;;;;;67.88;27.55;;;;;;;-0.59;100.00;93520.59;5069110;28;20045;-69
2023/02/03 05:13:25;;;;;;;124.18;46.30;;;;;;;-0.45;100.00;93532.00;5062059;28;20402;-69
2023/02/03 05:15:52;;;;;;;63.70;26.40;;;;;;;-0.37;100.00;93535.56;5067821;28;20128;-69
2023/02/03 05:18:18;;;;;;;110.95;46.55;;;;;;;-0.48;100.00;93533.97;5069263;28;20094;-69
2023/02/03 05:20:45;;;;;;;42.08;19.63;;;;;;;-0.51;100.00;93536.78;5069118;28;20551;-69
2023/02/03 05:23:12;;;;;;;93.53;38.60;;;;;;;-0.39;100.00;93548.31;5068956;28;20040;-69
2023/02/03 05:25:38;;;;;;;95.78;45.58;;;;;;;-0.35;100.00;93548.84;5069501;28;20051;-69
2023/02/03 05:28:05;;;;;;;48.95;26.75;;;;;;;-0.31;100.00;93553.50;5069292;28;20102;-69
2023/02/03 05:30:33;;;;;;;499.73;324.17;;;;;;;-0.21;100.00;93556.03;5069383;28;20041;-69
2023/02/03 05:33:00;;;;;;;49.20;27.83;;;;;;;-0.19;100.00;93563.47;5069223;28;20106;-69
2023/02/03 05:35:27;;;;;;;42.60;21.80;;;;;;;-0.20;100.00;93542.47;5068927;28;20041;-69
2023/02/03 05:37:53;;;;;;;51.05;27.42;;;;;;;-0.04;100.00;93562.09;5069218;28;20045;-69
2023/02/03 05:43:04;;;;;;;12.82;6.97;;;;;;;-0.07;100.00;93581.78;5068869;28;20463;-69
2023/02/03 05:45:33;;;;;;;13.43;7.75;;;;;;;0.04;100.00;93581.63;5068793;28;20048;-69
2023/02/03 05:48:01;;;;;;;13.20;8.20;;;;;;;0.07;100.00;93570.44;5068650;28;20056;-69
2023/02/03 05:50:32;;;;;;;7.57;6.10;;;;;;;-0.20;100.00;93577.81;5069021;28;20142;-69
2023/02/03 05:52:59;;;;;;;14.15;7.30;;;;;;;-0.28;100.00;93577.66;5068644;28;20045;-69
2023/02/03 05:55:26;;;;;;;8.13;5.97;;;;;;;-0.44;100.00;93578.22;5069190;28;20045;-69
2023/02/03 05:57:53;;;;;;;13.40;7.22;;;;;;;-0.44;100.00;93560.53;5068451;28;20087;-69
2023/02/03 06:00:21;;;;;;;12.93;8.93;;;;;;;-0.23;100.00;93580.59;5068679;28;20551;-69
2023/02/03 06:02:53;;;;;;;15.23;9.50;;;;;;;-0.23;100.00;93579.81;5068982;28;20440;-69
2023/02/03 06:05:20;;;;;;;13.93;9.38;;;;;;;-0.17;100.00;93582.59;5068844;28;20102;-69
2023/02/03 06:07:46;;;;;;;14.50;10.40;;;;;;;-0.19;100.00;93583.66;5068696;28;20090;-69
2023/02/03 06:10:13;;;;;;;15.00;10.75;;;;;;;-0.15;100.00;93582.44;5069090;28;20056;-69
2023/02/03 06:12:40;;;;;;;11.57;8.38;;;;;;;-0.14;100.00;93594.13;5064522;28;20040;-69
2023/02/03 06:15:07;;;;;;;15.63;10.80;;;;;;;-0.18;100.00;93590.31;5066907;28;20044;-69
2023/02/03 06:17:34;;;;;;;10.43;6.80;;;;;;;-0.71;100.00;93603.16;5068742;28;20114;-69
2023/02/03 06:20:03;;;;;;;8.95;6.15;;;;;;;-0.88;100.00;93604.59;5068706;28;20076;-69
2023/02/03 06:22:30;;;;;;;7.47;5.57;;;;;;;-0.99;100.00;93595.41;5068320;28;20121;-69
2023/02/03 06:24:56;;;;;;;14.63;10.00;;;;;;;-0.90;100.00;93600.59;5069839;28;20052;-69
2023/02/03 06:27:23;;;;;;;19.45;10.32;;;;;;;-0.84;100.00;93605.94;5072482;28;20398;-69
2023/02/03 06:29:50;;;;;;;19.77;10.38;;;;;;;-0.67;100.00;93603.69;5072775;28;20041;-69
2023/02/03 06:32:17;;;;;;;17.83;10.38;;;;;;;-0.72;100.00;93588.97;5072091;28;20394;-69
2023/02/03 06:34:44;;;;;;;21.40;11.00;;;;;;;-0.48;100.00;93610.50;5072508;28;20048;-69
2023/02/03 06:37:12;;;;;;;14.52;9.95;;;;;;;-0.40;100.00;93622.44;5071785;28;20052;-69
2023/02/03 06:39:39;;;;;;;29.15;15.30;;;;;;;-0.49;100.00;93613.94;5072608;28;20455;-68
2023/02/03 06:42:05;;;;;;;8.80;6.20;;;;;;;-0.61;100.00;93630.16;5072586;28;20094;-69
2023/02/03 06:44:32;;;;;;;6.07;4.35;;;;;;;-0.87;100.00;93631.44;5072431;28;20111;-68
2023/02/03 06:47:00;;;;;;;6.18;3.30;;;;;;;-1.08;100.00;93639.03;5072170;28;20493;-68
2023/02/03 06:49:27;;;;;;;4.07;3.00;;;;;;;-1.03;100.00;93631.13;5072108;28;20472;-68
2023/02/03 06:51:54;;;;;;;6.03;3.70;;;;;;;-1.12;100.00;93633.47;5072124;28;20052;-68
2023/02/03 06:54:22;;;;;;;5.65;3.90;;;;;;;-1.28;100.00;93615.50;5072290;28;20041;-69
2023/02/03 06:56:49;;;;;;;5.00;4.22;;;;;;;-1.16;100.00;93611.94;5071917;28;20098;-69
2023/02/03 06:59:16;;;;;;;7.20;4.70;;;;;;;-1.11;100.00;93619.91;5072234;28;20060;-69
2023/02/03 07:01:42;;;;;;;6.75;4.50;;;;;;;-1.08;100.00;93613.81;5071911;28;20094;-69
2023/02/03 07:04:09;;;;;;;5.82;3.97;;;;;;;-1.03;100.00;93618.50;5071752;28;20045;-69
2023/02/03 07:06:36;;;;;;;10.65;5.93;;;;;;;-0.78;100.00;93618.94;5071525;28;20040;-69
2023/02/03 07:09:05;;;;;;;9.48;5.43;;;;;;;-0.61;100.00;93617.53;5071757;28;20459;-69
2023/02/03 07:11:33;;;;;;;6.53;4.13;;;;;;;-0.66;100.00;93622.94;5071433;28;20562;-69
2023/02/03 07:14:00;;;;;;;6.07;4.50;;;;;;;-0.63;100.00;93625.22;5072022;28;20386;-69
2023/02/03 07:16:27;;;;;;;16.85;10.32;;;;;;;-0.62;100.00;93643.66;5071954;28;20045;-69
2023/02/03 07:18:54;;;;;;;16.35;9.65;;;;;;;-0.70;100.00;93637.56;5071502;28;20045;-69
2023/02/03 07:21:20;;;;;;;5.43;4.15;;;;;;;-0.81;100.00;93642.72;5071801;28;20044;-70
2023/02/03 07:23:48;;;;;;;8.95;6.95;;;;;;;-0.85;100.00;93651.44;5071275;28;20550;-69
2023/02/03 07:26:16;;;;;;;4.80;3.83;;;;;;;-0.91;100.00;93647.72;5071694;28;20055;-69
2023/02/03 07:28:44;;;;;;;4.20;3.38;;;;;;;-0.91;100.00;93645.22;5071684;28;20268;-69
2023/02/03 07:31:10;;;;;;;6.38;4.25;;;;;;;-0.70;100.00;93654.41;5071446;28;20098;-69
2023/02/03 07:33:38;;;;;;;6.55;5.13;;;;;;;-0.73;100.00;93662.25;5070824;28;20045;-69
2023/02/03 07:36:06;;;;;;;10.60;6.95;;;;;;;-0.55;100.00;93665.72;5051841;28;20096;-69
2023/02/03 07:38:33;;;;;;;9.70;5.75;;;;;;;-0.48;100.00;93648.34;5071057;28;20048;-69
2023/02/03 07:41:00;;;;;;;8.07;5.70;;;;;;;-0.43;100.00;93671.47;5071239;28;20078;-69
2023/02/03 07:43:26;;;;;;;5.15;3.95;;;;;;;-0.44;100.00;93674.94;5045055;28;20090;-69
2023/02/03 07:45:54;;;;;;;5.30;3.67;;;;;;;-0.29;100.00;93679.56;5071253;28;20393;-69
2023/02/03 07:48:21;;;;;;;5.70;4.45;;;;;;;-0.15;100.00;93679.19;5071113;28;20086;-69
2023/02/03 07:50:49;;;;;;;5.50;4.68;;;;;;;0.01;100.00;93667.78;5071014;28;20052;-69
2023/02/03 07:53:16;;;;;;;8.52;5.63;;;;;;;0.17;100.00;93671.47;5070939;28;20550;-69
2023/02/03 07:55:43;;;;;;;7.13;5.13;;;;;;;0.30;100.00;93672.00;5070708;28;20048;-69
2023/02/03 07:58:09;;;;;;;7.82;5.38;;;;;;;0.46;100.00;93666.38;5070585;28;20053;-69
2023/02/03 08:00:36;;;;;;;10.00;5.57;;;;;;;0.60;100.00;93666.91;5070948;28;20048;-69
2023/02/03 08:03:04;;;;;;;29.55;17.23;;;;;;;0.57;100.00;93667.97;5062841;28;20049;-69
2023/02/03 08:05:31;;;;;;;18.20;10.32;;;;;;;0.67;100.00;93680.56;5065449;28;20048;-70
2023/02/03 08:07:58;;;;;;;10.27;6.53;;;;;;;0.60;100.00;93680.31;5070744;28;20044;-70
2023/02/03 08:10:25;;;;;;;11.93;7.00;;;;;;;0.63;100.00;93680.06;5070158;28;20163;-70
2023/02/03 08:12:53;;;;;;;8.60;5.05;;;;;;;0.62;100.00;93682.72;5070610;28;20105;-70
2023/02/03 08:15:20;;;;;;;11.30;6.05;;;;;;;0.45;100.00;93689.25;5070477;28;20045;-70
2023/02/03 08:17:49;;;;;;;15.18;7.97;;;;;;;0.50;100.00;93679.53;5070904;28;20049;-71
2023/02/03 08:20:17;;;;;;;14.88;6.88;;;;;;;0.45;100.00;93676.63;5070322;28;20102;-70
2023/02/03 08:22:45;;;;;;;14.05;6.22;;;;;;;0.54;100.00;93675.81;5070400;28;20499;-70
2023/02/03 08:25:12;;;;;;;10.32;6.38;;;;;;;0.62;100.00;93665.84;5069942;28;20052;-69
2023/02/03 08:27:39;;;;;;;6.00;3.20;;;;;;;0.74;100.00;93678.31;5070189;28;20440;-69
2023/02/03 08:30:07;;;;;;;7.75;4.68;;;;;;;0.77;100.00;93675.50;5070445;28;20048;-70
2023/02/03 08:32:34;;;;;;;11.35;4.75;;;;;;;0.91;100.00;93680.13;5070077;28;20560;-70
2023/02/03 08:35:01;;;;;;;7.57;4.70;;;;;;;0.89;100.00;93691.31;5070351;28;20052;-70
2023/02/03 08:37:31;;;;;;;4.70;3.30;;;;;;;1.05;100.00;93688.97;5070121;28;20455;-70
2023/02/03 08:39:58;;;;;;;5.22;3.08;;;;;;;1.19;100.00;93697.84;5070300;28;20122;-70
2023/02/03 08:42:25;;;;;;;6.97;3.83;;;;;;;1.02;100.00;93713.78;5070229;28;20045;-70
2023/02/03 08:44:51;;;;;;;4.35;3.33;;;;;;;0.95;100.00;93715.22;5069663;28;20338;-70
2023/02/03 08:47:18;;;;;;;4.00;2.85;;;;;;;0.97;100.00;93706.56;5069121;28;20090;-70
2023/02/03 08:49:45;;;;;;;4.75;2.70;;;;;;;1.08;100.00;93713.22;5070374;28;20113;-70
2023/02/03 08:52:13;;;;;;;7.43;3.47;;;;;;;1.22;100.00;93701.84;5069336;28;20090;-70
2023/02/03 08:54:42;;;;;;;5.35;3.90;;;;;;;1.53;100.00;93698.22;5069596;28;20086;-70
2023/02/03 08:57:09;;;;;;;14.27;6.53;;;;;;;1.68;100.00;93704.41;5069924;28;20102;-70
2023/02/03 08:59:39;;;;;;;6.25;4.07;;;;;;;1.50;100.00;93703.56;5070027;28;20045;-70
2023/02/03 09:02:08;;;;;;;33.05;24.65;;;;;;;1.05;100.00;93706.69;5070164;28;20048;-70
2023/02/03 09:04:35;;;;;;;8.10;4.47;;;;;;;0.82;100.00;93698.63;5069261;28;20040;-69
2023/02/03 09:07:03;;;;;;;7.57;5.93;;;;;;;0.93;100.00;93693.41;5069551;28;20059;-70
2023/02/03 09:09:30;;;;;;;6.63;4.30;;;;;;;1.12;100.00;93696.00;5069274;28;20051;-70
2023/02/03 09:12:01;;;;;;;6.65;5.03;;;;;;;0.98;100.00;93694.72;5069523;28;20049;-69
2023/02/03 09:14:28;;;;;;;6.40;4.13;;;;;;;0.93;100.00;93690.88;5069504;28;20421;-69
2023/02/03 09:16:55;;;;;;;9.90;7.32;;;;;;;0.96;100.00;93691.56;5069218;28;20508;-69
2023/02/03 09:19:22;;;;;;;4.30;2.85;;;;;;;1.03;100.00;93683.25;5069317;28;20090;-69
2023/02/03 09:21:49;;;;;;;7.53;4.53;;;;;;;1.00;100.00;93687.78;5055830;28;20052;-70
2023/02/03 09:24:16;;;;;;;7.38;5.18;;;;;;;1.06;100.00;93688.03;5069132;28;20501;-69
2023/02/03 09:26:43;;;;;;;8.73;6.63;;;;;;;1.19;100.00;93694.50;5068973;28;20090;-69
2023/02/03 09:29:11;;;;;;;4.10;2.92;;;;;;;1.08;100.00;93700.56;5068939;28;20098;-69
2023/02/03 09:31:38;;;;;;;4.18;3.10;;;;;;;0.92;100.00;93698.59;5068752;28;20036;-69
2023/02/03 09:34:05;;;;;;;4.13;2.35;;;;;;;0.85;100.00;93698.38;5069433;28;20417;-69
2023/02/03 09:36:31;;;;;;;6.90;3.78;;;;;;;1.00;100.00;93696.19;5069139;28;20052;-69
2023/02/03 09:38:58;;;;;;;3.13;2.15;;;;;;;0.98;100.00;93694.72;5069345;28;20098;-69
2023/02/03 09:41:46;;;;;;;3.88;2.38;;;;;;;1.06;100.00;93695.63;5068703;28;20090;-69
2023/02/03 09:44:18;;;;;;;9.00;4.32;;;;;;;1.16;100.00;93700.66;5068893;28;20044;-69
2023/02/03 09:46:48;;;;;;;3.75;2.03;;;;;;;1.00;100.00;93705.50;5068873;28;20062;-69
2023/02/03 09:49:23;;;;;;;3.63;2.33;;;;;;;1.25;100.00;93706.59;5068743;28;20045;-69
2023/02/03 09:51:54;;;;;;;6.53;4.50;;;;;;;1.53;100.00;93698.22;5069112;28;20048;-69
2023/02/03 09:54:26;;;;;;;7.95;3.58;;;;;;;1.66;100.00;93698.66;5068929;28;20130;-69
2023/02/03 09:56:54;;;;;;;5.57;2.30;;;;;;;1.51;100.00;93702.63;5069156;28;20052;-69
2023/02/03 09:59:23;;;;;;;2.75;1.95;;;;;;;1.44;100.00;93703.19;5068823;28;20052;-69
2023/02/03 10:01:58;;;;;;;4.88;3.35;;;;;;;1.35;100.00;93698.19;5068551;28;20049;-69
2023/02/03 10:04:33;;;;;;;5.22;2.38;;;;;;;1.44;100.00;93694.81;5068820;28;20041;-69
2023/02/03 10:07:10;;;;;;;4.53;2.78;;;;;;;1.69;100.00;93698.41;5068880;28;20052;-69
2023/02/03 10:09:50;;;;;;;3.35;2.20;;;;;;;1.82;100.00;93694.72;5042081;28;20627;-69
2023/02/03 10:12:46;;;;;;;4.68;2.38;;;;;;;1.77;100.00;93696.88;5068610;28;20040;-69
2023/02/03 10:15:39;;;;;;;4.47;1.58;;;;;;;1.28;100.00;93685.28;5063215;28;20053;-69
2023/02/03 10:18:09;;;;;;;2.40;1.70;;;;;;;1.33;100.00;93698.31;5048625;28;20094;-69
2023/02/03 10:20:40;;;;;;;3.10;1.90;;;;;;;1.45;100.00;93691.34;5068854;28;20045;-69
2023/02/03 10:23:14;;;;;;;3.55;1.75;;;;;;;1.48;100.00;93690.25;5068713;28;20044;-69
2023/02/03 10:25:44;;;;;;;7.22;2.20;;;;;;;1.39;100.00;93686.84;5068673;28;20121;-69
2023/02/03 10:28:16;;;;;;;2.95;1.33;;;;;;;1.14;100.00;93681.47;5068632;28;20049;-69
2023/02/03 10:30:48;;;;;;;3.75;1.88;;;;;;;1.45;100.00;93671.88;5068587;28;20056;-69
2023/02/03 10:33:17;;;;;;;2.92;1.70;;;;;;;1.22;98.21;93656.28;5068909;28;20056;-69
2023/02/03 10:35:50;;;;;;;3.05;1.60;;;;;;;1.32;99.79;93661.28;5068987;28;20044;-69
2023/02/03 10:38:27;;;;;;;3.33;1.50;;;;;;;1.48;99.31;93658.13;5055026;28;20091;-69
2023/02/03 10:40:53;;;;;;;2.80;1.20;;;;;;;1.29;95.05;93651.47;5068598;28;20049;-69
2023/02/03 10:46:05;;;;;;;3.42;1.80;;;;;;;1.36;95.72;93656.72;5061063;28;20517;-69
2023/02/03 10:48:32;;;;;;;3.10;1.50;;;;;;;1.25;95.40;93655.97;5055044;28;20501;-69
2023/02/03 10:50:59;;;;;;;3.47;2.15;;;;;;;1.19;96.64;93644.72;5068161;28;20106;-69
2023/02/03 10:53:31;;;;;;;3.92;1.92;;;;;;;1.11;92.79;93653.94;5068483;28;20437;-69
2023/02/03 10:56:04;;;;;;;2.85;1.35;;;;;;;1.21;94.37;93647.09;5068194;28;20133;-69
2023/02/03 10:58:33;;;;;;;8.32;2.92;;;;;;;1.37;95.75;93655.78;5068180;28;20558;-69
2023/02/03 11:01:09;;;;;;;4.38;1.92;;;;;;;1.57;96.17;93653.97;5068091;28;20436;-69
2023/02/03 11:03:36;;;;;;;4.95;1.90;;;;;;;1.67;92.32;93658.97;5068351;28;20102;-69
2023/02/03 11:06:08;;;;;;;4.75;2.10;;;;;;;1.97;98.00;93651.94;5067930;28;20496;-69
2023/02/03 11:08:37;;;;;;;3.78;2.30;;;;;;;2.21;98.09;93656.41;5062637;28;20106;-69
2023/02/03 11:11:05;;;;;;;5.30;1.77;;;;;;;2.38;95.68;93656.53;5067745;28;20497;-69
2023/02/03 11:13:32;;;;;;;4.85;2.00;;;;;;;1.99;88.97;93633.09;5071380;28;20463;-69
2023/02/03 11:16:01;;;;;;;2.20;1.30;;;;;;;1.80;88.69;93645.94;5071863;28;20439;-69
2023/02/03 11:18:54;;;;;;;3.58;2.30;;;;;;;1.63;87.90;93645.78;5071490;28;20497;-69
2023/02/03 11:21:23;;;;;;;3.53;1.90;;;;;;;1.49;86.29;93638.69;5071691;28;20052;-69
2023/02/03 11:23:55;;;;;;;3.58;1.42;;;;;;;1.70;91.66;93640.94;5071436;28;20114;-69
2023/02/03 11:26:27;;;;;;;2.80;1.63;;;;;;;1.64;90.32;93631.38;5071311;28;20114;-69
2023/02/03 11:28:58;;;;;;;4.25;2.40;;;;;;;1.78;92.65;93613.16;5071392;28;20051;-69
2023/02/03 11:31:26;;;;;;;4.55;2.80;;;;;;;2.07;92.55;93617.19;5071586;28;20052;-69
2023/02/03 11:33:58;;;;;;;3.25;1.30;;;;;;;1.89;84.49;93608.81;5070834;28;20044;-69
2023/02/03 11:36:29;;;;;;;2.55;1.70;;;;;;;1.67;86.75;93590.59;5070577;28;20440;-69
2023/02/03 11:39:27;;;;;;;4.40;2.67;;;;;;;1.97;92.84;93604.59;5071499;28;20044;-69
2023/02/03 11:41:55;;;;;;;6.85;2.40;;;;;;;2.10;91.21;93593.28;5009064;28;20045;-69